sensor_id;sensor_type;location;lat;lon;timestamp;P1;durP1;ratioP1;P2;durP2;ratioP2
5199;SDS011;2619;47.868;11.892;2023-08-31T00:02:10;14.60;;;11.60;;
5199;SDS011;2619;47.868;11.892;2023-08-31T00:04:36;15.90;;;11.17;;
5199;SDS011;2619;47.868;11.892;2023-08-31T00:07:02;12.00;;;10.60;;
5199;SDS011;2619;47.868;11.892;2023-08-31T00:09:27;12.90;;;10.97;;
5199;SDS011;2619;47.868;11.892;2023-08-31T00:11:54;13.20;;;11.80;;
5199;SDS011;2619;47.868;11.892;2023-08-31T00:14:21;13.20;;;11.47;;
5199;SDS011;2619;47.868;11.892;2023-08-31T00:16:47;16.00;;;11.57;;
5199;SDS011;2619;47.868;11.892;2023-08-31T00:19:13;16.23;;;12.00;;
5199;SDS011;2619;47.868;11.892;2023-08-31T00:21:39;14.57;;;11.90;;
5199;SDS011;2619;47.868;11.892;2023-08-31T00:24:05;15.73;;;12.00;;
5199;SDS011;2619;47.868;11.892;2023-08-31T00:26:32;15.90;;;11.13;;
5199;SDS011;2619;47.868;11.892;2023-08-31T00:28:58;13.30;;;11.60;;
5199;SDS011;2619;47.868;11.892;2023-08-31T00:31:23;13.40;;;11.20;;
5199;SDS011;2619;47.868;11.892;2023-08-31T00:33:49;12.37;;;10.00;;
5199;SDS011;2619;47.868;11.892;2023-08-31T00:36:15;11.73;;;10.37;;
5199;SDS011;2619;47.868;11.892;2023-08-31T00:38:42;12.00;;;10.80;;
5199;SDS011;2619;47.868;11.892;2023-08-31T00:41:08;15.07;;;10.97;;
5199;SDS011;2619;47.868;11.892;2023-08-31T00:43:34;11.60;;;10.40;;
5199;SDS011;2619;47.868;11.892;2023-08-31T00:45:59;12.73;;;11.00;;
5199;SDS011;2619;47.868;11.892;2023-08-31T00:48:25;15.13;;;10.23;;
5199;SDS011;2619;47.868;11.892;2023-08-31T00:50:51;15.13;;;10.67;;
5199;SDS011;2619;47.868;11.892;2023-08-31T00:53:17;14.43;;;10.37;;
5199;SDS011;2619;47.868;11.892;2023-08-31T00:55:46;12.10;;;10.20;;
5199;SDS011;2619;47.868;11.892;2023-08-31T00:58:12;11.60;;;9.80;;
5199;SDS011;2619;47.868;11.892;2023-08-31T01:08:56;12.40;;;9.03;;
5199;SDS011;2619;47.868;11.892;2023-08-31T01:14:32;13.00;;;10.50;;
5199;SDS011;2619;47.868;11.892;2023-08-31T01:17:04;13.63;;;10.10;;
5199;SDS011;2619;47.868;11.892;2023-08-31T01:19:44;16.73;;;11.00;;
5199;SDS011;2619;47.868;11.892;2023-08-31T01:22:13;11.43;;;9.23;;
5199;SDS011;2619;47.868;11.892;2023-08-31T01:24:44;13.57;;;10.43;;
5199;SDS011;2619;47.868;11.892;2023-08-31T01:27:10;13.77;;;10.23;;
5199;SDS011;2619;47.868;11.892;2023-08-31T01:29:36;12.57;;;9.27;;
5199;SDS011;2619;47.868;11.892;2023-08-31T01:32:05;12.97;;;9.87;;
5199;SDS011;2619;47.868;11.892;2023-08-31T01:34:32;13.80;;;10.33;;
5199;SDS011;2619;47.868;11.892;2023-08-31T01:36:58;12.47;;;10.13;;
5199;SDS011;2619;47.868;11.892;2023-08-31T01:39:29;11.83;;;9.47;;
5199;SDS011;2619;47.868;11.892;2023-08-31T01:42:03;11.60;;;9.30;;
5199;SDS011;2619;47.868;11.892;2023-08-31T01:44:31;10.30;;;9.20;;
5199;SDS011;2619;47.868;11.892;2023-08-31T01:47:02;12.23;;;10.53;;
5199;SDS011;2619;47.868;11.892;2023-08-31T01:49:35;12.60;;;10.50;;
5199;SDS011;2619;47.868;11.892;2023-08-31T01:52:01;13.17;;;9.83;;
5199;SDS011;2619;47.868;11.892;2023-08-31T01:54:27;11.63;;;9.97;;
5199;SDS011;2619;47.868;11.892;2023-08-31T01:56:52;11.40;;;9.53;;
5199;SDS011;2619;47.868;11.892;2023-08-31T01:59:18;12.50;;;10.23;;
5199;SDS011;2619;47.868;11.892;2023-08-31T02:01:43;11.27;;;10.07;;
5199;SDS011;2619;47.868;11.892;2023-08-31T02:04:09;12.40;;;10.33;;
5199;SDS011;2619;47.868;11.892;2023-08-31T02:06:34;12.00;;;10.40;;
5199;SDS011;2619;47.868;11.892;2023-08-31T02:09:00;11.17;;;9.47;;
5199;SDS011;2619;47.868;11.892;2023-08-31T02:11:26;12.13;;;10.60;;
5199;SDS011;2619;47.868;11.892;2023-08-31T02:13:51;13.30;;;10.70;;
5199;SDS011;2619;47.868;11.892;2023-08-31T02:16:17;13.40;;;9.67;;
5199;SDS011;2619;47.868;11.892;2023-08-31T02:18:42;11.70;;;9.03;;
5199;SDS011;2619;47.868;11.892;2023-08-31T02:21:08;11.10;;;9.43;;
5199;SDS011;2619;47.868;11.892;2023-08-31T02:23:33;11.27;;;9.70;;
5199;SDS011;2619;47.868;11.892;2023-08-31T02:25:59;11.50;;;9.50;;
5199;SDS011;2619;47.868;11.892;2023-08-31T02:28:24;10.80;;;9.10;;
5199;SDS011;2619;47.868;11.892;2023-08-31T02:30:57;10.40;;;9.30;;
5199;SDS011;2619;47.868;11.892;2023-08-31T02:33:24;14.37;;;10.83;;
5199;SDS011;2619;47.868;11.892;2023-08-31T02:35:50;11.93;;;10.27;;
5199;SDS011;2619;47.868;11.892;2023-08-31T02:38:15;12.07;;;9.90;;
5199;SDS011;2619;47.868;11.892;2023-08-31T02:40:41;10.77;;;9.67;;
5199;SDS011;2619;47.868;11.892;2023-08-31T02:43:07;11.90;;;9.63;;
5199;SDS011;2619;47.868;11.892;2023-08-31T02:45:32;12.43;;;10.17;;
5199;SDS011;2619;47.868;11.892;2023-08-31T02:47:58;12.00;;;9.93;;
5199;SDS011;2619;47.868;11.892;2023-08-31T02:50:23;11.93;;;9.50;;
5199;SDS011;2619;47.868;11.892;2023-08-31T02:52:49;10.40;;;9.10;;
5199;SDS011;2619;47.868;11.892;2023-08-31T02:55:15;13.93;;;11.53;;
5199;SDS011;2619;47.868;11.892;2023-08-31T02:57:40;11.90;;;10.67;;
5199;SDS011;2619;47.868;11.892;2023-08-31T03:00:06;11.40;;;10.03;;
5199;SDS011;2619;47.868;11.892;2023-08-31T03:02:36;10.20;;;8.90;;
5199;SDS011;2619;47.868;11.892;2023-08-31T03:05:02;13.60;;;10.07;;
5199;SDS011;2619;47.868;11.892;2023-08-31T03:07:27;11.20;;;9.57;;
5199;SDS011;2619;47.868;11.892;2023-08-31T03:09:53;11.20;;;9.73;;
5199;SDS011;2619;47.868;11.892;2023-08-31T03:12:18;10.30;;;8.83;;
5199;SDS011;2619;47.868;11.892;2023-08-31T03:14:45;9.90;;;8.23;;
5199;SDS011;2619;47.868;11.892;2023-08-31T03:17:10;10.40;;;8.93;;
5199;SDS011;2619;47.868;11.892;2023-08-31T03:19:36;9.67;;;8.60;;
5199;SDS011;2619;47.868;11.892;2023-08-31T03:22:01;11.43;;;8.80;;
5199;SDS011;2619;47.868;11.892;2023-08-31T03:24:27;10.73;;;8.60;;
5199;SDS011;2619;47.868;11.892;2023-08-31T03:26:52;11.00;;;8.67;;
5199;SDS011;2619;47.868;11.892;2023-08-31T03:29:18;9.87;;;7.77;;
5199;SDS011;2619;47.868;11.892;2023-08-31T03:31:43;10.93;;;8.80;;
5199;SDS011;2619;47.868;11.892;2023-08-31T03:34:09;9.07;;;8.13;;
5199;SDS011;2619;47.868;11.892;2023-08-31T03:36:35;10.57;;;9.00;;
5199;SDS011;2619;47.868;11.892;2023-08-31T03:39:01;8.80;;;7.50;;
5199;SDS011;2619;47.868;11.892;2023-08-31T03:41:26;8.97;;;8.07;;
5199;SDS011;2619;47.868;11.892;2023-08-31T03:43:52;10.43;;;9.00;;
5199;SDS011;2619;47.868;11.892;2023-08-31T03:46:18;9.50;;;7.87;;
5199;SDS011;2619;47.868;11.892;2023-08-31T03:48:43;11.90;;;8.60;;
5199;SDS011;2619;47.868;11.892;2023-08-31T03:51:09;9.40;;;8.40;;
5199;SDS011;2619;47.868;11.892;2023-08-31T03:53:34;10.10;;;8.80;;
5199;SDS011;2619;47.868;11.892;2023-08-31T03:56:00;9.60;;;8.27;;
5199;SDS011;2619;47.868;11.892;2023-08-31T03:58:25;9.80;;;8.80;;
5199;SDS011;2619;47.868;11.892;2023-08-31T04:00:51;10.87;;;8.10;;
5199;SDS011;2619;47.868;11.892;2023-08-31T04:03:17;9.97;;;8.90;;
5199;SDS011;2619;47.868;11.892;2023-08-31T04:05:42;9.47;;;8.57;;
5199;SDS011;2619;47.868;11.892;2023-08-31T04:08:08;10.20;;;9.20;;
5199;SDS011;2619;47.868;11.892;2023-08-31T04:10:35;10.23;;;9.03;;
5199;SDS011;2619;47.868;11.892;2023-08-31T04:13:00;10.87;;;9.77;;
5199;SDS011;2619;47.868;11.892;2023-08-31T04:15:26;10.20;;;9.10;;
5199;SDS011;2619;47.868;11.892;2023-08-31T04:17:51;9.60;;;8.63;;
5199;SDS011;2619;47.868;11.892;2023-08-31T04:20:17;10.43;;;9.27;;
5199;SDS011;2619;47.868;11.892;2023-08-31T04:22:43;10.90;;;9.80;;
5199;SDS011;2619;47.868;11.892;2023-08-31T04:25:08;10.07;;;8.50;;
5199;SDS011;2619;47.868;11.892;2023-08-31T04:27:34;10.53;;;9.20;;
5199;SDS011;2619;47.868;11.892;2023-08-31T04:30:01;11.50;;;8.80;;
5199;SDS011;2619;47.868;11.892;2023-08-31T04:32:28;10.20;;;8.47;;
5199;SDS011;2619;47.868;11.892;2023-08-31T04:34:54;10.77;;;8.07;;
5199;SDS011;2619;47.868;11.892;2023-08-31T04:37:20;11.83;;;9.27;;
5199;SDS011;2619;47.868;11.892;2023-08-31T04:39:46;9.23;;;8.33;;
5199;SDS011;2619;47.868;11.892;2023-08-31T04:42:12;8.97;;;7.50;;
5199;SDS011;2619;47.868;11.892;2023-08-31T04:44:38;8.47;;;7.10;;
5199;SDS011;2619;47.868;11.892;2023-08-31T04:47:03;8.60;;;7.40;;
5199;SDS011;2619;47.868;11.892;2023-08-31T04:49:29;10.10;;;6.10;;
5199;SDS011;2619;47.868;11.892;2023-08-31T04:51:56;11.13;;;7.50;;
5199;SDS011;2619;47.868;11.892;2023-08-31T04:54:21;7.00;;;5.47;;
5199;SDS011;2619;47.868;11.892;2023-08-31T04:56:47;6.90;;;5.97;;
5199;SDS011;2619;47.868;11.892;2023-08-31T04:59:12;7.33;;;6.00;;
5199;SDS011;2619;47.868;11.892;2023-08-31T05:01:38;7.37;;;5.90;;
5199;SDS011;2619;47.868;11.892;2023-08-31T05:04:03;7.80;;;6.40;;
5199;SDS011;2619;47.868;11.892;2023-08-31T05:06:29;7.30;;;5.53;;
5199;SDS011;2619;47.868;11.892;2023-08-31T05:08:55;9.27;;;6.30;;
5199;SDS011;2619;47.868;11.892;2023-08-31T05:11:21;6.70;;;5.97;;
5199;SDS011;2619;47.868;11.892;2023-08-31T05:13:47;8.70;;;6.00;;
5199;SDS011;2619;47.868;11.892;2023-08-31T05:16:13;11.20;;;6.50;;
5199;SDS011;2619;47.868;11.892;2023-08-31T05:18:39;8.80;;;6.00;;
5199;SDS011;2619;47.868;11.892;2023-08-31T05:21:05;6.40;;;5.40;;
5199;SDS011;2619;47.868;11.892;2023-08-31T05:23:31;9.17;;;5.90;;
5199;SDS011;2619;47.868;11.892;2023-08-31T05:25:57;8.50;;;5.97;;
5199;SDS011;2619;47.868;11.892;2023-08-31T05:28:23;6.30;;;5.20;;
5199;SDS011;2619;47.868;11.892;2023-08-31T05:30:55;8.73;;;5.73;;
5199;SDS011;2619;47.868;11.892;2023-08-31T05:33:23;7.37;;;5.53;;
5199;SDS011;2619;47.868;11.892;2023-08-31T05:35:50;5.77;;;4.50;;
5199;SDS011;2619;47.868;11.892;2023-08-31T05:38:16;6.27;;;4.70;;
5199;SDS011;2619;47.868;11.892;2023-08-31T05:40:42;13.33;;;5.63;;
5199;SDS011;2619;47.868;11.892;2023-08-31T05:43:13;9.07;;;4.83;;
5199;SDS011;2619;47.868;11.892;2023-08-31T05:45:39;6.77;;;4.50;;
5199;SDS011;2619;47.868;11.892;2023-08-31T05:48:04;7.77;;;4.63;;
5199;SDS011;2619;47.868;11.892;2023-08-31T05:50:30;6.13;;;4.90;;
5199;SDS011;2619;47.868;11.892;2023-08-31T05:52:57;5.73;;;4.00;;
5199;SDS011;2619;47.868;11.892;2023-08-31T05:55:23;6.87;;;4.67;;
5199;SDS011;2619;47.868;11.892;2023-08-31T05:57:49;11.63;;;4.50;;
5199;SDS011;2619;47.868;11.892;2023-08-31T06:00:15;7.33;;;5.10;;
5199;SDS011;2619;47.868;11.892;2023-08-31T06:02:43;6.00;;;4.47;;
5199;SDS011;2619;47.868;11.892;2023-08-31T06:05:09;5.90;;;4.73;;
5199;SDS011;2619;47.868;11.892;2023-08-31T06:07:37;6.23;;;4.50;;
5199;SDS011;2619;47.868;11.892;2023-08-31T06:10:03;5.70;;;3.77;;
5199;SDS011;2619;47.868;11.892;2023-08-31T06:12:29;4.13;;;3.07;;
5199;SDS011;2619;47.868;11.892;2023-08-31T06:14:55;5.10;;;2.90;;
5199;SDS011;2619;47.868;11.892;2023-08-31T06:17:21;4.67;;;2.67;;
5199;SDS011;2619;47.868;11.892;2023-08-31T06:19:46;4.37;;;2.80;;
5199;SDS011;2619;47.868;11.892;2023-08-31T06:22:12;7.40;;;3.23;;
5199;SDS011;2619;47.868;11.892;2023-08-31T06:24:37;4.93;;;3.57;;
5199;SDS011;2619;47.868;11.892;2023-08-31T06:27:03;4.03;;;2.80;;
5199;SDS011;2619;47.868;11.892;2023-08-31T06:29:29;3.80;;;3.00;;
5199;SDS011;2619;47.868;11.892;2023-08-31T06:31:54;4.10;;;2.90;;
5199;SDS011;2619;47.868;11.892;2023-08-31T06:34:20;4.47;;;2.90;;
5199;SDS011;2619;47.868;11.892;2023-08-31T06:36:46;4.13;;;3.13;;
5199;SDS011;2619;47.868;11.892;2023-08-31T06:39:11;4.90;;;3.53;;
5199;SDS011;2619;47.868;11.892;2023-08-31T06:41:37;6.33;;;4.00;;
5199;SDS011;2619;47.868;11.892;2023-08-31T06:44:02;6.17;;;5.00;;
5199;SDS011;2619;47.868;11.892;2023-08-31T06:46:29;9.27;;;7.10;;
5199;SDS011;2619;47.868;11.892;2023-08-31T06:48:58;5.17;;;3.67;;
5199;SDS011;2619;47.868;11.892;2023-08-31T06:51:24;5.10;;;3.17;;
5199;SDS011;2619;47.868;11.892;2023-08-31T06:53:50;5.13;;;4.00;;
5199;SDS011;2619;47.868;11.892;2023-08-31T06:56:16;4.50;;;3.70;;
5199;SDS011;2619;47.868;11.892;2023-08-31T06:58:41;7.00;;;3.73;;
5199;SDS011;2619;47.868;11.892;2023-08-31T07:01:08;4.50;;;3.90;;
5199;SDS011;2619;47.868;11.892;2023-08-31T07:03:34;5.00;;;3.57;;
5199;SDS011;2619;47.868;11.892;2023-08-31T07:06:00;12.43;;;10.03;;
5199;SDS011;2619;47.868;11.892;2023-08-31T07:08:25;5.80;;;3.70;;
5199;SDS011;2619;47.868;11.892;2023-08-31T07:10:51;6.57;;;4.97;;
5199;SDS011;2619;47.868;11.892;2023-08-31T07:13:17;4.60;;;3.70;;
5199;SDS011;2619;47.868;11.892;2023-08-31T07:15:42;5.77;;;4.10;;
5199;SDS011;2619;47.868;11.892;2023-08-31T07:18:08;5.30;;;4.37;;
5199;SDS011;2619;47.868;11.892;2023-08-31T07:20:34;5.40;;;3.50;;
5199;SDS011;2619;47.868;11.892;2023-08-31T07:22:59;4.73;;;3.70;;
5199;SDS011;2619;47.868;11.892;2023-08-31T07:25:25;3.90;;;3.30;;
5199;SDS011;2619;47.868;11.892;2023-08-31T07:27:52;7.13;;;4.13;;
5199;SDS011;2619;47.868;11.892;2023-08-31T07:30:18;5.30;;;4.23;;
5199;SDS011;2619;47.868;11.892;2023-08-31T07:32:43;5.93;;;3.47;;
5199;SDS011;2619;47.868;11.892;2023-08-31T07:35:09;4.57;;;3.50;;
5199;SDS011;2619;47.868;11.892;2023-08-31T07:37:34;5.50;;;3.20;;
5199;SDS011;2619;47.868;11.892;2023-08-31T07:40:02;3.53;;;3.20;;
5199;SDS011;2619;47.868;11.892;2023-08-31T07:42:28;5.60;;;3.37;;
5199;SDS011;2619;47.868;11.892;2023-08-31T07:44:54;5.10;;;4.03;;
5199;SDS011;2619;47.868;11.892;2023-08-31T07:47:20;4.73;;;3.40;;
5199;SDS011;2619;47.868;11.892;2023-08-31T07:49:45;6.13;;;3.50;;
5199;SDS011;2619;47.868;11.892;2023-08-31T07:52:11;3.87;;;3.23;;
5199;SDS011;2619;47.868;11.892;2023-08-31T07:54:36;4.33;;;3.53;;
5199;SDS011;2619;47.868;11.892;2023-08-31T07:57:02;4.17;;;3.23;;
5199;SDS011;2619;47.868;11.892;2023-08-31T07:59:28;4.03;;;3.17;;
5199;SDS011;2619;47.868;11.892;2023-08-31T08:01:53;5.60;;;4.00;;
5199;SDS011;2619;47.868;11.892;2023-08-31T08:04:19;5.27;;;3.33;;
5199;SDS011;2619;47.868;11.892;2023-08-31T08:06:45;3.80;;;3.00;;
5199;SDS011;2619;47.868;11.892;2023-08-31T08:09:10;6.63;;;3.50;;
5199;SDS011;2619;47.868;11.892;2023-08-31T08:11:37;3.60;;;2.70;;
5199;SDS011;2619;47.868;11.892;2023-08-31T08:14:03;6.43;;;3.40;;
5199;SDS011;2619;47.868;11.892;2023-08-31T08:16:28;4.30;;;3.30;;
5199;SDS011;2619;47.868;11.892;2023-08-31T08:18:54;3.70;;;2.60;;
5199;SDS011;2619;47.868;11.892;2023-08-31T08:21:20;7.03;;;2.80;;
5199;SDS011;2619;47.868;11.892;2023-08-31T08:23:46;3.77;;;2.63;;
5199;SDS011;2619;47.868;11.892;2023-08-31T14:34:23;5.07;;;1.97;;
5199;SDS011;2619;47.868;11.892;2023-08-31T14:36:50;3.30;;;2.10;;
5199;SDS011;2619;47.868;11.892;2023-08-31T14:39:15;4.00;;;2.17;;
5199;SDS011;2619;47.868;11.892;2023-08-31T14:41:41;4.27;;;2.60;;
5199;SDS011;2619;47.868;11.892;2023-08-31T14:44:07;8.47;;;2.10;;
5199;SDS011;2619;47.868;11.892;2023-08-31T14:46:33;7.73;;;2.23;;
5199;SDS011;2619;47.868;11.892;2023-08-31T14:48:58;3.40;;;2.03;;
5199;SDS011;2619;47.868;11.892;2023-08-31T14:51:24;3.80;;;2.17;;
5199;SDS011;2619;47.868;11.892;2023-08-31T14:53:50;4.77;;;2.00;;
5199;SDS011;2619;47.868;11.892;2023-08-31T14:56:15;4.97;;;2.23;;
5199;SDS011;2619;47.868;11.892;2023-08-31T14:58:41;4.37;;;1.90;;
5199;SDS011;2619;47.868;11.892;2023-08-31T15:01:06;3.20;;;2.13;;
5199;SDS011;2619;47.868;11.892;2023-08-31T15:03:33;5.47;;;2.70;;
5199;SDS011;2619;47.868;11.892;2023-08-31T15:05:58;4.33;;;2.33;;
5199;SDS011;2619;47.868;11.892;2023-08-31T15:08:34;4.00;;;2.03;;
5199;SDS011;2619;47.868;11.892;2023-08-31T15:11:04;4.43;;;2.73;;
5199;SDS011;2619;47.868;11.892;2023-08-31T15:13:29;6.90;;;2.60;;
5199;SDS011;2619;47.868;11.892;2023-08-31T15:15:55;3.67;;;2.20;;
5199;SDS011;2619;47.868;11.892;2023-08-31T15:18:21;3.47;;;2.10;;
5199;SDS011;2619;47.868;11.892;2023-08-31T15:20:47;3.57;;;2.30;;
5199;SDS011;2619;47.868;11.892;2023-08-31T15:23:13;5.20;;;2.50;;
5199;SDS011;2619;47.868;11.892;2023-08-31T15:25:38;3.03;;;2.10;;
5199;SDS011;2619;47.868;11.892;2023-08-31T15:28:04;5.90;;;1.93;;
5199;SDS011;2619;47.868;11.892;2023-08-31T15:30:30;3.87;;;2.30;;
5199;SDS011;2619;47.868;11.892;2023-08-31T15:33:00;4.07;;;2.00;;
5199;SDS011;2619;47.868;11.892;2023-08-31T15:35:27;6.23;;;2.63;;
5199;SDS011;2619;47.868;11.892;2023-08-31T15:37:53;4.10;;;2.40;;
5199;SDS011;2619;47.868;11.892;2023-08-31T15:40:19;4.50;;;2.60;;
5199;SDS011;2619;47.868;11.892;2023-08-31T15:42:44;5.63;;;2.27;;
5199;SDS011;2619;47.868;11.892;2023-08-31T15:45:10;7.63;;;2.40;;
5199;SDS011;2619;47.868;11.892;2023-08-31T15:47:35;4.03;;;2.27;;
5199;SDS011;2619;47.868;11.892;2023-08-31T15:50:02;7.50;;;2.13;;
5199;SDS011;2619;47.868;11.892;2023-08-31T15:52:28;7.70;;;2.97;;
5199;SDS011;2619;47.868;11.892;2023-08-31T15:54:53;5.17;;;2.70;;
5199;SDS011;2619;47.868;11.892;2023-08-31T15:57:19;4.57;;;2.53;;
5199;SDS011;2619;47.868;11.892;2023-08-31T15:59:45;5.70;;;2.30;;
5199;SDS011;2619;47.868;11.892;2023-08-31T16:02:14;4.10;;;2.37;;
5199;SDS011;2619;47.868;11.892;2023-08-31T16:04:41;5.67;;;2.83;;
5199;SDS011;2619;47.868;11.892;2023-08-31T16:07:08;7.43;;;2.97;;
5199;SDS011;2619;47.868;11.892;2023-08-31T16:09:34;8.30;;;2.87;;
5199;SDS011;2619;47.868;11.892;2023-08-31T16:12:00;3.17;;;2.57;;
5199;SDS011;2619;47.868;11.892;2023-08-31T16:14:27;6.37;;;2.70;;
5199;SDS011;2619;47.868;11.892;2023-08-31T16:16:53;3.77;;;2.70;;
5199;SDS011;2619;47.868;11.892;2023-08-31T16:19:19;4.57;;;2.63;;
5199;SDS011;2619;47.868;11.892;2023-08-31T16:21:45;7.23;;;2.60;;
5199;SDS011;2619;47.868;11.892;2023-08-31T16:24:10;4.40;;;2.50;;
5199;SDS011;2619;47.868;11.892;2023-08-31T16:26:36;4.10;;;2.83;;
5199;SDS011;2619;47.868;11.892;2023-08-31T16:29:02;5.90;;;2.60;;
5199;SDS011;2619;47.868;11.892;2023-08-31T16:31:29;4.10;;;2.60;;
5199;SDS011;2619;47.868;11.892;2023-08-31T16:33:54;5.23;;;2.77;;
5199;SDS011;2619;47.868;11.892;2023-08-31T16:36:20;5.17;;;2.67;;
5199;SDS011;2619;47.868;11.892;2023-08-31T16:38:46;5.90;;;3.00;;
5199;SDS011;2619;47.868;11.892;2023-08-31T16:41:11;8.50;;;3.30;;
5199;SDS011;2619;47.868;11.892;2023-08-31T16:43:37;4.43;;;2.90;;
5199;SDS011;2619;47.868;11.892;2023-08-31T16:46:02;3.83;;;2.67;;
5199;SDS011;2619;47.868;11.892;2023-08-31T16:48:28;5.00;;;2.67;;
5199;SDS011;2619;47.868;11.892;2023-08-31T16:50:54;4.50;;;2.87;;
5199;SDS011;2619;47.868;11.892;2023-08-31T16:53:19;8.07;;;2.87;;
5199;SDS011;2619;47.868;11.892;2023-08-31T16:55:45;5.67;;;3.00;;
5199;SDS011;2619;47.868;11.892;2023-08-31T16:58:10;3.57;;;2.47;;
5199;SDS011;2619;47.868;11.892;2023-08-31T17:00:36;4.83;;;2.93;;
5199;SDS011;2619;47.868;11.892;2023-08-31T17:03:02;5.10;;;2.63;;
5199;SDS011;2619;47.868;11.892;2023-08-31T17:05:29;4.20;;;3.00;;
5199;SDS011;2619;47.868;11.892;2023-08-31T17:07:54;7.80;;;2.90;;
5199;SDS011;2619;47.868;11.892;2023-08-31T17:10:20;6.97;;;3.07;;
5199;SDS011;2619;47.868;11.892;2023-08-31T17:12:46;5.60;;;2.90;;
5199;SDS011;2619;47.868;11.892;2023-08-31T17:15:12;4.53;;;3.63;;
5199;SDS011;2619;47.868;11.892;2023-08-31T17:17:38;7.30;;;3.93;;
5199;SDS011;2619;47.868;11.892;2023-08-31T17:20:08;5.13;;;3.33;;
5199;SDS011;2619;47.868;11.892;2023-08-31T17:22:41;5.70;;;2.97;;
5199;SDS011;2619;47.868;11.892;2023-08-31T17:25:10;6.10;;;3.27;;
5199;SDS011;2619;47.868;11.892;2023-08-31T17:27:36;4.37;;;3.10;;
5199;SDS011;2619;47.868;11.892;2023-08-31T17:30:03;5.10;;;3.30;;
5199;SDS011;2619;47.868;11.892;2023-08-31T17:32:31;5.80;;;3.47;;
5199;SDS011;2619;47.868;11.892;2023-08-31T17:34:57;6.53;;;2.90;;
5199;SDS011;2619;47.868;11.892;2023-08-31T17:37:23;6.73;;;3.10;;
5199;SDS011;2619;47.868;11.892;2023-08-31T17:39:50;6.70;;;3.50;;
5199;SDS011;2619;47.868;11.892;2023-08-31T17:42:16;5.53;;;3.37;;
5199;SDS011;2619;47.868;11.892;2023-08-31T17:44:42;7.13;;;3.10;;
5199;SDS011;2619;47.868;11.892;2023-08-31T17:47:07;10.30;;;4.20;;
5199;SDS011;2619;47.868;11.892;2023-08-31T17:49:33;4.10;;;2.90;;
5199;SDS011;2619;47.868;11.892;2023-08-31T17:51:58;8.10;;;3.70;;
5199;SDS011;2619;47.868;11.892;2023-08-31T17:54:24;5.77;;;2.47;;
5199;SDS011;2619;47.868;11.892;2023-08-31T17:56:49;6.60;;;3.83;;
5199;SDS011;2619;47.868;11.892;2023-08-31T17:59:15;7.07;;;3.80;;
5199;SDS011;2619;47.868;11.892;2023-08-31T18:01:43;3.80;;;3.10;;
5199;SDS011;2619;47.868;11.892;2023-08-31T18:04:10;5.47;;;2.77;;
5199;SDS011;2619;47.868;11.892;2023-08-31T18:06:36;7.63;;;3.30;;
5199;SDS011;2619;47.868;11.892;2023-08-31T18:09:02;7.70;;;3.20;;
5199;SDS011;2619;47.868;11.892;2023-08-31T18:11:31;5.53;;;3.30;;
5199;SDS011;2619;47.868;11.892;2023-08-31T18:13:57;3.97;;;3.23;;
5199;SDS011;2619;47.868;11.892;2023-08-31T18:16:23;5.83;;;3.40;;
5199;SDS011;2619;47.868;11.892;2023-08-31T18:18:48;4.80;;;3.33;;
5199;SDS011;2619;47.868;11.892;2023-08-31T18:21:14;11.07;;;3.50;;
5199;SDS011;2619;47.868;11.892;2023-08-31T18:23:39;7.23;;;3.80;;
5199;SDS011;2619;47.868;11.892;2023-08-31T18:26:05;8.23;;;3.50;;
5199;SDS011;2619;47.868;11.892;2023-08-31T18:28:31;4.70;;;3.00;;
5199;SDS011;2619;47.868;11.892;2023-08-31T18:30:58;6.80;;;3.70;;
5199;SDS011;2619;47.868;11.892;2023-08-31T18:33:28;5.73;;;3.30;;
5199;SDS011;2619;47.868;11.892;2023-08-31T18:35:55;7.90;;;4.00;;
5199;SDS011;2619;47.868;11.892;2023-08-31T18:38:23;5.60;;;3.80;;
5199;SDS011;2619;47.868;11.892;2023-08-31T18:40:50;9.43;;;4.47;;
5199;SDS011;2619;47.868;11.892;2023-08-31T18:43:17;7.87;;;4.67;;
5199;SDS011;2619;47.868;11.892;2023-08-31T18:45:44;6.20;;;3.90;;
5199;SDS011;2619;47.868;11.892;2023-08-31T18:48:11;10.73;;;5.47;;
5199;SDS011;2619;47.868;11.892;2023-08-31T18:50:37;7.57;;;4.87;;
5199;SDS011;2619;47.868;11.892;2023-08-31T18:53:04;7.93;;;3.90;;
5199;SDS011;2619;47.868;11.892;2023-08-31T18:55:30;4.60;;;3.33;;
5199;SDS011;2619;47.868;11.892;2023-08-31T18:57:55;5.23;;;3.70;;
5199;SDS011;2619;47.868;11.892;2023-08-31T19:00:21;9.40;;;4.20;;
5199;SDS011;2619;47.868;11.892;2023-08-31T19:02:48;7.30;;;4.10;;
5199;SDS011;2619;47.868;11.892;2023-08-31T19:05:13;6.53;;;3.93;;
5199;SDS011;2619;47.868;11.892;2023-08-31T19:07:40;4.90;;;4.07;;
5199;SDS011;2619;47.868;11.892;2023-08-31T19:10:06;4.80;;;3.93;;
5199;SDS011;2619;47.868;11.892;2023-08-31T19:12:33;5.00;;;4.23;;
5199;SDS011;2619;47.868;11.892;2023-08-31T19:14:59;7.77;;;4.77;;
5199;SDS011;2619;47.868;11.892;2023-08-31T19:17:25;7.10;;;4.30;;
5199;SDS011;2619;47.868;11.892;2023-08-31T19:19:50;6.50;;;3.80;;
5199;SDS011;2619;47.868;11.892;2023-08-31T19:22:16;4.90;;;4.40;;
5199;SDS011;2619;47.868;11.892;2023-08-31T19:24:43;5.90;;;3.77;;
5199;SDS011;2619;47.868;11.892;2023-08-31T19:27:08;5.07;;;4.33;;
5199;SDS011;2619;47.868;11.892;2023-08-31T19:29:34;5.20;;;4.00;;
5199;SDS011;2619;47.868;11.892;2023-08-31T19:32:00;6.73;;;3.90;;
5199;SDS011;2619;47.868;11.892;2023-08-31T19:34:26;8.77;;;4.30;;
5199;SDS011;2619;47.868;11.892;2023-08-31T19:36:53;5.50;;;3.70;;
5199;SDS011;2619;47.868;11.892;2023-08-31T19:39:19;5.17;;;3.87;;
5199;SDS011;2619;47.868;11.892;2023-08-31T19:41:45;4.97;;;3.87;;
5199;SDS011;2619;47.868;11.892;2023-08-31T19:44:10;5.50;;;3.80;;
5199;SDS011;2619;47.868;11.892;2023-08-31T19:46:36;11.27;;;5.33;;
5199;SDS011;2619;47.868;11.892;2023-08-31T19:49:02;4.80;;;3.93;;
5199;SDS011;2619;47.868;11.892;2023-08-31T19:51:28;6.10;;;4.30;;
5199;SDS011;2619;47.868;11.892;2023-08-31T19:53:54;6.27;;;4.00;;
5199;SDS011;2619;47.868;11.892;2023-08-31T19:56:20;5.70;;;4.10;;
5199;SDS011;2619;47.868;11.892;2023-08-31T19:58:45;6.63;;;3.50;;
5199;SDS011;2619;47.868;11.892;2023-08-31T20:01:11;6.43;;;3.60;;
5199;SDS011;2619;47.868;11.892;2023-08-31T20:03:37;5.20;;;3.37;;
5199;SDS011;2619;47.868;11.892;2023-08-31T20:06:06;6.83;;;3.40;;
5199;SDS011;2619;47.868;11.892;2023-08-31T20:08:32;4.83;;;3.30;;
5199;SDS011;2619;47.868;11.892;2023-08-31T20:10:58;5.70;;;3.90;;
5199;SDS011;2619;47.868;11.892;2023-08-31T20:13:24;6.17;;;4.00;;
5199;SDS011;2619;47.868;11.892;2023-08-31T20:15:50;5.97;;;3.60;;
5199;SDS011;2619;47.868;11.892;2023-08-31T20:18:16;6.33;;;3.10;;
5199;SDS011;2619;47.868;11.892;2023-08-31T20:20:41;4.47;;;3.03;;
5199;SDS011;2619;47.868;11.892;2023-08-31T20:23:10;5.67;;;4.20;;
5199;SDS011;2619;47.868;11.892;2023-08-31T20:25:38;4.10;;;3.20;;
5199;SDS011;2619;47.868;11.892;2023-08-31T20:28:04;7.13;;;3.77;;
5199;SDS011;2619;47.868;11.892;2023-08-31T20:30:31;4.90;;;3.63;;
5199;SDS011;2619;47.868;11.892;2023-08-31T20:32:57;4.33;;;3.20;;
5199;SDS011;2619;47.868;11.892;2023-08-31T20:35:23;5.83;;;3.40;;
5199;SDS011;2619;47.868;11.892;2023-08-31T20:37:49;4.83;;;2.67;;
5199;SDS011;2619;47.868;11.892;2023-08-31T20:40:15;6.10;;;3.40;;
5199;SDS011;2619;47.868;11.892;2023-08-31T20:42:41;9.60;;;3.57;;
5199;SDS011;2619;47.868;11.892;2023-08-31T20:45:08;4.53;;;3.20;;
5199;SDS011;2619;47.868;11.892;2023-08-31T20:47:37;3.30;;;2.73;;
5199;SDS011;2619;47.868;11.892;2023-08-31T20:50:03;4.60;;;3.27;;
5199;SDS011;2619;47.868;11.892;2023-08-31T20:52:29;4.03;;;3.00;;
5199;SDS011;2619;47.868;11.892;2023-08-31T20:54:58;6.17;;;3.20;;
5199;SDS011;2619;47.868;11.892;2023-08-31T20:57:24;4.20;;;3.50;;
5199;SDS011;2619;47.868;11.892;2023-08-31T20:59:50;4.27;;;3.13;;
5199;SDS011;2619;47.868;11.892;2023-08-31T21:02:15;4.30;;;3.33;;
5199;SDS011;2619;47.868;11.892;2023-08-31T21:04:43;4.40;;;3.60;;
5199;SDS011;2619;47.868;11.892;2023-08-31T21:07:08;4.10;;;3.00;;
5199;SDS011;2619;47.868;11.892;2023-08-31T21:09:34;6.17;;;3.23;;